メインページ
METAR-TAF:

METAR-TAF

空港 :

松山空港

松山, 日本

緯度: 33-49N, 経度: 132-42E, 海抜: 4m

現時点の気象観測

当レポートは14分前の09:00(UTC)に作成
西の風 16kt
気温 10°C
湿度 50%
気圧 1024 hPa
視程10km以上
高度3000ftの雲はほとんどない
高度4500ftの雲は散在している

METAR: RJOM 130900Z 27016KT 9999 FEW030 SCT045 10/00 Q1024

時間: 18:14 (09:14 UTC)

予報

当レポートは4時間7分前の05:07(UTC)に作成
予報は13日の 06時(UTC)から 14日の 12時(UTC)まで有効
西/南西の風 12kt
視程10km以上
高度3000ftの雲はほとんどない
高度4500ftの雲は散在している
13日の 16時(UTC)から 13日の 18時(UTC)まで徐々に
北/北西の風 10kt

TAF: RJOM 130507Z 1306/1412 25012KT 9999 FEW030 SCT045 BECMG 1316/1318 34010KT

4,000以上の空港の気象観測と天気予報(METAR報とTAF報)

利用可能な観測所は地図上に黄色い丸と赤い丸で示す。

丸の上にカーソルを重ねると観測所名を参照できる。

次にクリックすると気象観測と天気予報を参照できる。

マップの切り替え:黒色「×」印の緑ボタンをクリックして拡大、「-」印の緑ボタンをクリックして縮小、緑色の三角印をクリックして隣りの地図に切り替え


METAR-TAF: